sensor_id;sensor_type;location;lat;lon;timestamp;temperature;humidity
49148;DHT22;41980;45.550;12.070;2022-11-15T07:37:22;7.90;84.70
49148;DHT22;41980;45.550;12.070;2022-11-15T07:43:28;8.10;85.20
49148;DHT22;41980;45.550;12.070;2022-11-15T07:49:35;8.30;85.10
49148;DHT22;41980;45.550;12.070;2022-11-15T07:55:41;8.60;85.10
49148;DHT22;41980;45.550;12.070;2022-11-15T08:01:46;8.70;84.80
49148;DHT22;41980;45.550;12.070;2022-11-15T08:07:51;8.80;84.80
49148;DHT22;41980;45.550;12.070;2022-11-15T08:13:56;8.70;84.80
49148;DHT22;41980;45.550;12.070;2022-11-15T08:20:02;8.90;84.80
49148;DHT22;41980;45.550;12.070;2022-11-15T08:26:09;9.10;84.80
49148;DHT22;41980;45.550;12.070;2022-11-15T08:32:14;9.30;84.40
49148;DHT22;41980;45.550;12.070;2022-11-15T08:38:20;9.40;84.10
49148;DHT22;41980;45.550;12.070;2022-11-15T08:44:26;9.40;84.10
49148;DHT22;41980;45.550;12.070;2022-11-15T08:50:32;9.50;84.10
49148;DHT22;41980;45.550;12.070;2022-11-15T08:56:37;9.60;84.30
49148;DHT22;41980;45.550;12.070;2022-11-15T09:02:42;9.90;84.00
49148;DHT22;41980;45.550;12.070;2022-11-15T09:08:48;10.10;83.80
49148;DHT22;41980;45.550;12.070;2022-11-15T09:14:53;10.40;83.60
49148;DHT22;41980;45.550;12.070;2022-11-15T09:21:02;10.80;83.50
49148;DHT22;41980;45.550;12.070;2022-11-15T09:27:08;11.00;83.00
49148;DHT22;41980;45.550;12.070;2022-11-15T09:33:15;11.10;82.70
49148;DHT22;41980;45.550;12.070;2022-11-15T09:39:20;11.30;82.80
49148;DHT22;41980;45.550;12.070;2022-11-15T09:51:39;11.40;82.30
49148;DHT22;41980;45.550;12.070;2022-11-15T09:57:54;11.30;82.50
49148;DHT22;41980;45.550;12.070;2022-11-15T10:03:59;11.30;82.50
49148;DHT22;41980;45.550;12.070;2022-11-15T10:10:10;11.40;82.30
49148;DHT22;41980;45.550;12.070;2022-11-15T10:22:28;11.30;82.40
49148;DHT22;41980;45.550;12.070;2022-11-15T10:28:31;11.30;82.60
49148;DHT22;41980;45.550;12.070;2022-11-15T10:34:36;11.30;82.50
49148;DHT22;41980;45.550;12.070;2022-11-15T10:40:40;11.20;82.50
49148;DHT22;41980;45.550;12.070;2022-11-15T10:46:45;11.10;82.60
49148;DHT22;41980;45.550;12.070;2022-11-15T10:52:49;11.10;82.60
49148;DHT22;41980;45.550;12.070;2022-11-15T10:58:55;11.20;82.60
49148;DHT22;41980;45.550;12.070;2022-11-15T11:04:59;11.30;82.60
49148;DHT22;41980;45.550;12.070;2022-11-15T11:11:03;11.50;82.50
49148;DHT22;41980;45.550;12.070;2022-11-15T11:23:16;11.90;82.00
49148;DHT22;41980;45.550;12.070;2022-11-15T11:29:30;12.00;81.80
49148;DHT22;41980;45.550;12.070;2022-11-15T11:47:59;12.30;81.70
49148;DHT22;41980;45.550;12.070;2022-11-15T11:54:17;12.30;81.60
49148;DHT22;41980;45.550;12.070;2022-11-15T12:00:24;12.40;81.80
49148;DHT22;41980;45.550;12.070;2022-11-15T12:18:52;12.50;81.40
49148;DHT22;41980;45.550;12.070;2022-11-15T12:25:01;12.40;81.50
49148;DHT22;41980;45.550;12.070;2022-11-15T12:31:06;12.30;81.60
49148;DHT22;41980;45.550;12.070;2022-11-15T12:55:33;12.20;81.70
49148;DHT22;41980;45.550;12.070;2022-11-15T13:13:44;12.10;81.80
49148;DHT22;41980;45.550;12.070;2022-11-15T13:32:00;12.00;81.70
49148;DHT22;41980;45.550;12.070;2022-11-15T13:38:04;12.00;81.90
49148;DHT22;41980;45.550;12.070;2022-11-15T13:44:20;11.90;82.00
49148;DHT22;41980;45.550;12.070;2022-11-15T13:50:28;12.00;81.80
49148;DHT22;41980;45.550;12.070;2022-11-15T13:56:33;11.90;81.90
49148;DHT22;41980;45.550;12.070;2022-11-15T14:02:36;11.90;81.90
49148;DHT22;41980;45.550;12.070;2022-11-15T14:08:40;11.80;81.90
49148;DHT22;41980;45.550;12.070;2022-11-15T14:14:46;11.70;81.90
49148;DHT22;41980;45.550;12.070;2022-11-15T14:20:48;11.70;82.10
49148;DHT22;41980;45.550;12.070;2022-11-15T14:26:50;11.70;82.00
49148;DHT22;41980;45.550;12.070;2022-11-15T14:32:52;11.70;82.00
49148;DHT22;41980;45.550;12.070;2022-11-15T14:38:55;11.70;82.10
49148;DHT22;41980;45.550;12.070;2022-11-15T14:44:58;11.70;82.10
49148;DHT22;41980;45.550;12.070;2022-11-15T14:51:00;11.70;82.10
49148;DHT22;41980;45.550;12.070;2022-11-15T14:57:02;11.60;82.10
49148;DHT22;41980;45.550;12.070;2022-11-15T15:03:05;11.50;82.20
49148;DHT22;41980;45.550;12.070;2022-11-15T15:09:08;11.50;82.30
49148;DHT22;41980;45.550;12.070;2022-11-15T15:15:15;11.50;82.30
49148;DHT22;41980;45.550;12.070;2022-11-15T15:21:22;11.50;82.30
49148;DHT22;41980;45.550;12.070;2022-11-15T15:27:24;11.40;82.30
49148;DHT22;41980;45.550;12.070;2022-11-15T15:33:27;11.40;82.40
49148;DHT22;41980;45.550;12.070;2022-11-15T15:39:29;11.40;82.50
49148;DHT22;41980;45.550;12.070;2022-11-15T15:45:32;11.30;82.40
49148;DHT22;41980;45.550;12.070;2022-11-15T15:51:34;11.20;82.60
49148;DHT22;41980;45.550;12.070;2022-11-15T15:57:36;11.20;83.00
49148;DHT22;41980;45.550;12.070;2022-11-15T16:03:39;11.10;82.70
49148;DHT22;41980;45.550;12.070;2022-11-15T16:09:41;11.10;82.70
49148;DHT22;41980;45.550;12.070;2022-11-15T16:15:50;11.00;82.80
49148;DHT22;41980;45.550;12.070;2022-11-15T16:21:53;11.00;82.80
49148;DHT22;41980;45.550;12.070;2022-11-15T16:27:56;11.00;82.90
49148;DHT22;41980;45.550;12.070;2022-11-15T16:33:58;11.00;83.00
49148;DHT22;41980;45.550;12.070;2022-11-15T16:40:00;10.90;83.10
49148;DHT22;41980;45.550;12.070;2022-11-15T16:46:11;10.90;83.10
49148;DHT22;41980;45.550;12.070;2022-11-15T16:52:14;11.00;83.20
49148;DHT22;41980;45.550;12.070;2022-11-15T16:58:17;10.90;83.30
49148;DHT22;41980;45.550;12.070;2022-11-15T17:04:19;11.00;83.30
49148;DHT22;41980;45.550;12.070;2022-11-15T17:10:25;11.00;83.30
49148;DHT22;41980;45.550;12.070;2022-11-15T17:16:28;11.00;83.30
49148;DHT22;41980;45.550;12.070;2022-11-15T17:22:30;11.00;83.40
49148;DHT22;41980;45.550;12.070;2022-11-15T17:28:33;11.00;83.30
49148;DHT22;41980;45.550;12.070;2022-11-15T17:34:36;11.00;83.40
49148;DHT22;41980;45.550;12.070;2022-11-15T17:40:38;11.00;83.40
49148;DHT22;41980;45.550;12.070;2022-11-15T17:46:42;11.00;83.40
49148;DHT22;41980;45.550;12.070;2022-11-15T17:52:44;11.00;83.40
49148;DHT22;41980;45.550;12.070;2022-11-15T17:58:50;11.00;83.40
49148;DHT22;41980;45.550;12.070;2022-11-15T18:04:53;11.00;83.40
49148;DHT22;41980;45.550;12.070;2022-11-15T18:17:03;11.00;83.60
49148;DHT22;41980;45.550;12.070;2022-11-15T18:23:06;11.00;83.50
49148;DHT22;41980;45.550;12.070;2022-11-15T18:29:08;11.00;83.60
49148;DHT22;41980;45.550;12.070;2022-11-15T18:35:11;11.00;83.70
49148;DHT22;41980;45.550;12.070;2022-11-15T18:41:17;11.10;83.80
49148;DHT22;41980;45.550;12.070;2022-11-15T18:47:21;11.00;83.50
49148;DHT22;41980;45.550;12.070;2022-11-15T18:53:24;11.10;83.50
49148;DHT22;41980;45.550;12.070;2022-11-15T18:59:26;11.00;83.60
49148;DHT22;41980;45.550;12.070;2022-11-15T19:05:28;11.10;84.10
49148;DHT22;41980;45.550;12.070;2022-11-15T19:11:32;11.00;84.40
49148;DHT22;41980;45.550;12.070;2022-11-15T19:17:36;11.00;84.70
49148;DHT22;41980;45.550;12.070;2022-11-15T19:23:40;11.00;84.70
49148;DHT22;41980;45.550;12.070;2022-11-15T19:29:43;10.90;84.50
49148;DHT22;41980;45.550;12.070;2022-11-15T19:35:45;10.90;84.60
49148;DHT22;41980;45.550;12.070;2022-11-15T19:41:47;10.90;84.70
49148;DHT22;41980;45.550;12.070;2022-11-15T19:47:51;11.00;84.00
49148;DHT22;41980;45.550;12.070;2022-11-15T19:53:55;11.00;84.00
49148;DHT22;41980;45.550;12.070;2022-11-15T19:59:57;11.10;84.50
49148;DHT22;41980;45.550;12.070;2022-11-15T20:06:03;11.00;84.50
49148;DHT22;41980;45.550;12.070;2022-11-15T20:12:06;11.00;84.60
49148;DHT22;41980;45.550;12.070;2022-11-15T20:18:09;11.00;84.00
49148;DHT22;41980;45.550;12.070;2022-11-15T20:24:11;11.00;84.30
49148;DHT22;41980;45.550;12.070;2022-11-15T20:30:13;11.00;84.10
49148;DHT22;41980;45.550;12.070;2022-11-15T20:36:15;11.00;84.00
49148;DHT22;41980;45.550;12.070;2022-11-15T20:42:17;11.10;84.10
49148;DHT22;41980;45.550;12.070;2022-11-15T20:48:19;11.10;83.70
49148;DHT22;41980;45.550;12.070;2022-11-15T20:54:21;11.10;83.90
49148;DHT22;41980;45.550;12.070;2022-11-15T21:00:23;11.10;84.00
49148;DHT22;41980;45.550;12.070;2022-11-15T21:06:27;11.10;84.90
49148;DHT22;41980;45.550;12.070;2022-11-15T21:12:31;11.10;84.40
49148;DHT22;41980;45.550;12.070;2022-11-15T21:18:33;11.10;84.40
49148;DHT22;41980;45.550;12.070;2022-11-15T21:24:35;11.10;84.50
49148;DHT22;41980;45.550;12.070;2022-11-15T21:30:37;11.00;85.00
49148;DHT22;41980;45.550;12.070;2022-11-15T21:36:41;11.10;84.40
49148;DHT22;41980;45.550;12.070;2022-11-15T21:42:43;11.10;84.40
49148;DHT22;41980;45.550;12.070;2022-11-15T21:48:45;11.10;84.20
49148;DHT22;41980;45.550;12.070;2022-11-15T21:54:47;11.20;83.70
49148;DHT22;41980;45.550;12.070;2022-11-15T22:00:49;11.20;83.70
49148;DHT22;41980;45.550;12.070;2022-11-15T22:06:54;11.20;84.70
49148;DHT22;41980;45.550;12.070;2022-11-15T22:12:56;11.20;84.50
49148;DHT22;41980;45.550;12.070;2022-11-15T22:18:58;11.20;84.10
49148;DHT22;41980;45.550;12.070;2022-11-15T22:25:00;11.20;84.00
49148;DHT22;41980;45.550;12.070;2022-11-15T22:31:03;11.20;84.50
49148;DHT22;41980;45.550;12.070;2022-11-15T22:37:05;11.20;84.30
49148;DHT22;41980;45.550;12.070;2022-11-15T22:43:12;11.20;84.20
49148;DHT22;41980;45.550;12.070;2022-11-15T22:49:15;11.20;83.90
49148;DHT22;41980;45.550;12.070;2022-11-15T22:55:17;11.30;83.70
49148;DHT22;41980;45.550;12.070;2022-11-15T23:01:20;11.30;83.70
49148;DHT22;41980;45.550;12.070;2022-11-15T23:07:23;11.30;83.80
49148;DHT22;41980;45.550;12.070;2022-11-15T23:13:27;11.30;84.20
49148;DHT22;41980;45.550;12.070;2022-11-15T23:19:29;11.30;83.70
49148;DHT22;41980;45.550;12.070;2022-11-15T23:25:31;11.40;84.10
49148;DHT22;41980;45.550;12.070;2022-11-15T23:31:33;11.30;83.60
49148;DHT22;41980;45.550;12.070;2022-11-15T23:37:39;11.40;83.70
49148;DHT22;41980;45.550;12.070;2022-11-15T23:43:41;11.40;83.80
49148;DHT22;41980;45.550;12.070;2022-11-15T23:49:43;11.40;84.10
